Time;durP1;ratioP1;P1;durP2;ratioP2;P2;SDS_P1;SDS_P2;PMS_P1;PMS_P2;Temp;Humidity;BMP_temperature;BMP_pressure;BME280_temperature;BME280_humidity;BME280_pressure;Samples;Min_cycle;Max_cycle;Signal;HPM_P1;HPM_P2
2023/10/25 00:01:37;;;;;;;6.50;5.28;;;;;;;10.98;88.69;96437.88;10416274;28;20045;-66
2023/10/25 00:06:59;;;;;;;7.18;5.00;;;;;;;11.03;88.88;96447.88;10387666;28;20045;-67
2023/10/25 00:12:21;;;;;;;7.18;5.50;;;;;;;11.10;88.41;96448.88;10401218;28;20507;-66
2023/10/25 00:17:41;;;;;;;7.78;4.85;;;;;;;11.05;88.39;96453.56;10401138;28;20125;-66
2023/10/25 00:23:02;;;;;;;5.82;4.65;;;;;;;11.06;88.46;96457.78;10386143;28;20080;-66
2023/10/25 00:28:26;;;;;;;6.23;4.97;;;;;;;10.98;88.30;96462.28;10384570;28;20061;-66
2023/10/25 00:33:46;;;;;;;6.20;4.80;;;;;;;10.88;88.93;96471.63;10374036;28;20057;-66
2023/10/25 00:39:07;;;;;;;5.93;4.72;;;;;;;10.87;88.81;96469.47;10373433;28;20041;-65
2023/10/25 00:44:28;;;;;;;5.43;4.32;;;;;;;10.86;89.21;96465.25;10396589;28;20042;-66
2023/10/25 00:49:49;;;;;;;6.03;4.75;;;;;;;10.86;89.26;96468.75;10386443;28;20059;-66
2023/10/25 00:55:10;;;;;;;6.50;4.72;;;;;;;10.77;88.91;96466.22;10400074;28;20057;-66
2023/10/25 01:00:31;;;;;;;6.03;5.05;;;;;;;10.72;89.11;96464.59;10386226;28;20117;-66
2023/10/25 01:05:53;;;;;;;5.28;4.30;;;;;;;10.71;89.80;96457.56;10400143;28;20491;-66
2023/10/25 01:11:14;;;;;;;6.93;5.32;;;;;;;10.69;89.09;96460.97;10399749;28;20111;-66
2023/10/25 01:16:35;;;;;;;6.50;5.18;;;;;;;10.65;89.54;96460.81;10400104;28;20172;-66
2023/10/25 01:21:56;;;;;;;7.75;5.15;;;;;;;10.59;89.98;96452.84;10399531;28;20297;-66
2023/10/25 01:27:17;;;;;;;7.10;5.90;;;;;;;10.56;89.38;96456.91;10399469;28;20045;-66
2023/10/25 01:32:38;;;;;;;8.20;5.40;;;;;;;10.63;90.04;96460.72;10414371;28;20057;-66
2023/10/25 01:37:59;;;;;;;6.50;5.00;;;;;;;10.69;89.82;96460.25;10414007;28;20049;-66
2023/10/25 01:43:20;;;;;;;8.93;4.72;;;;;;;10.66;90.06;96455.94;10406160;28;20483;-66
2023/10/25 01:48:43;;;;;;;6.90;4.72;;;;;;;10.54;89.53;96456.09;10406544;28;20490;-67
2023/10/25 01:54:04;;;;;;;6.82;5.45;;;;;;;10.39;90.44;96454.69;10374852;28;20062;-66
2023/10/25 01:59:25;;;;;;;8.02;5.40;;;;;;;10.24;90.19;96458.19;10380591;28;20053;-67
2023/10/25 02:04:46;;;;;;;5.63;4.45;;;;;;;10.16;90.16;96457.75;10383503;28;20057;-66
2023/10/25 02:10:07;;;;;;;6.45;4.72;;;;;;;10.08;90.78;96460.16;10379000;28;20061;-65
2023/10/25 02:15:28;;;;;;;7.22;4.30;;;;;;;10.01;91.20;96467.47;10377134;28;20046;-66
2023/10/25 02:20:49;;;;;;;5.35;4.43;;;;;;;10.03;91.45;96467.56;10344115;28;20046;-66
2023/10/25 02:26:10;;;;;;;6.30;4.50;;;;;;;10.16;91.18;96482.84;10323660;28;20508;-65
2023/10/25 02:31:35;;;;;;;7.88;5.00;;;;;;;10.21;90.81;96490.78;10310204;28;20129;-65
2023/10/25 02:36:56;;;;;;;5.43;3.92;;;;;;;10.37;91.37;96490.16;10337268;28;20054;-65
2023/10/25 02:42:17;;;;;;;4.95;4.18;;;;;;;10.57;91.05;96505.06;10322905;28;20050;-66
2023/10/25 02:47:38;;;;;;;4.95;4.03;;;;;;;10.69;90.91;96499.34;10351643;28;20034;-66
2023/10/25 02:52:59;;;;;;;4.88;3.70;;;;;;;10.75;90.47;96502.41;10362101;28;20112;-65
2023/10/25 02:58:20;;;;;;;4.60;3.72;;;;;;;10.65;90.38;96505.47;10362775;28;20073;-66
2023/10/25 03:03:41;;;;;;;4.53;3.83;;;;;;;10.46;90.39;96512.22;10377397;28;20042;-66
2023/10/25 03:09:02;;;;;;;5.57;3.53;;;;;;;10.30;90.77;96514.22;10362656;28;20041;-66
2023/10/25 03:14:23;;;;;;;4.72;3.78;;;;;;;10.19;90.92;96512.25;10362835;28;20045;-65
2023/10/25 03:19:44;;;;;;;4.57;3.90;;;;;;;10.08;91.63;96510.31;10375932;28;20069;-65
2023/10/25 03:25:05;;;;;;;5.60;3.47;;;;;;;9.98;91.70;96511.25;10362116;28;20050;-65
2023/10/25 03:30:26;;;;;;;5.90;3.67;;;;;;;9.91;91.88;96515.09;10348407;28;20474;-65
2023/10/25 03:35:53;;;;;;;4.63;3.35;;;;;;;9.85;92.13;96514.06;10376492;28;20045;-66
2023/10/25 03:41:15;;;;;;;4.97;3.70;;;;;;;9.80;92.41;96515.19;10375191;28;20476;-66
2023/10/25 03:46:37;;;;;;;4.32;3.38;;;;;;;9.73;92.40;96508.59;10375599;28;20369;-66
2023/10/25 03:51:58;;;;;;;4.97;3.30;;;;;;;9.71;92.38;96505.72;10361011;28;20050;-66
2023/10/25 03:57:19;;;;;;;5.22;3.83;;;;;;;9.65;92.35;96510.97;10416355;28;20087;-66
2023/10/25 04:02:40;;;;;;;4.57;3.63;;;;;;;9.58;92.65;96521.09;10400769;28;20502;-66
2023/10/25 04:08:01;;;;;;;5.13;3.65;;;;;;;9.54;92.68;96511.78;10401438;28;20045;-66
2023/10/25 04:13:22;;;;;;;5.55;4.03;;;;;;;9.51;92.85;96515.81;10401120;28;20042;-66
2023/10/25 04:18:43;;;;;;;5.38;3.92;;;;;;;9.48;92.66;96506.63;10400948;28;20048;-66
2023/10/25 04:24:04;;;;;;;4.10;3.40;;;;;;;9.43;93.10;96510.53;10401047;28;20045;-66
2023/10/25 04:29:25;;;;;;;4.75;3.92;;;;;;;9.43;93.29;96505.69;10383649;28;20080;-68
2023/10/25 04:34:46;;;;;;;4.10;3.47;;;;;;;9.40;92.88;96501.38;10409829;28;20045;-67
2023/10/25 04:40:08;;;;;;;5.45;3.92;;;;;;;9.37;92.81;96497.03;10397834;28;20092;-66
2023/10/25 04:45:30;;;;;;;5.63;3.72;;;;;;;9.36;93.02;96489.28;10385856;28;20073;-68
2023/10/25 04:50:51;;;;;;;4.43;3.47;;;;;;;9.35;93.36;96490.63;10396964;28;20068;-65
2023/10/25 04:56:12;;;;;;;4.80;4.15;;;;;;;9.35;93.14;96491.34;10396703;28;20380;-65
2023/10/25 05:01:33;;;;;;;4.97;3.92;;;;;;;9.36;93.07;96503.94;10401617;28;20041;-66
2023/10/25 05:06:54;;;;;;;4.10;3.30;;;;;;;9.40;93.13;96501.38;10401524;28;20038;-66
2023/10/25 05:12:15;;;;;;;5.28;3.90;;;;;;;9.48;93.04;96494.78;10400068;28;20049;-66
2023/10/25 05:17:40;;;;;;;5.82;4.57;;;;;;;9.49;93.15;96493.44;10406106;28;20099;-65
2023/10/25 05:23:02;;;;;;;4.95;4.32;;;;;;;9.48;93.36;96503.84;10393827;28;20068;-66
2023/10/25 05:28:24;;;;;;;6.55;4.72;;;;;;;9.46;93.45;96507.25;10419681;28;20069;-65
2023/10/25 05:33:45;;;;;;;8.85;6.80;;;;;;;9.51;93.40;96513.03;10389155;28;20037;-66
2023/10/25 05:39:06;;;;;;;17.42;8.90;;;;;;;9.60;93.23;96512.09;10405768;28;20033;-66
2023/10/25 05:44:28;;;;;;;7.88;5.35;;;;;;;9.77;92.92;96531.09;10406129;28;20049;-65
2023/10/25 05:49:50;;;;;;;8.05;5.70;;;;;;;9.98;93.25;96530.78;10401872;28;20048;-66
2023/10/25 05:55:15;;;;;;;5.47;4.45;;;;;;;10.22;92.86;96536.13;10389790;28;20058;-66
2023/10/25 06:00:36;;;;;;;7.60;4.88;;;;;;;10.52;92.54;96536.94;10403350;28;20049;-67
2023/10/25 06:05:57;;;;;;;5.07;4.22;;;;;;;10.73;92.26;96544.91;10403766;28;20069;-65
2023/10/25 06:11:18;;;;;;;7.78;4.53;;;;;;;10.90;91.51;96551.97;10389735;28;20405;-67
2023/10/25 06:16:39;;;;;;;5.25;4.38;;;;;;;11.07;91.41;96554.16;10386365;28;20500;-67
2023/10/25 06:22:00;;;;;;;5.63;4.10;;;;;;;11.21;90.76;96572.94;10379473;28;20058;-66
2023/10/25 06:27:21;;;;;;;6.60;4.60;;;;;;;11.34;91.10;96577.75;10418873;28;20064;-67
2023/10/25 06:32:42;;;;;;;4.93;4.13;;;;;;;11.45;90.76;96583.16;10417490;28;20042;-65
2023/10/25 06:38:03;;;;;;;5.78;4.15;;;;;;;11.63;90.56;96597.22;10378320;28;20050;-66
2023/10/25 06:43:25;;;;;;;6.05;4.30;;;;;;;11.78;89.79;96597.88;10350056;28;20473;-66
2023/10/25 06:48:46;;;;;;;6.88;4.50;;;;;;;11.91;89.75;96594.28;10363320;28;20432;-66
2023/10/25 06:54:09;;;;;;;6.10;4.65;;;;;;;12.06;89.37;96593.53;10378085;28;20053;-66
2023/10/25 06:59:30;;;;;;;7.15;5.45;;;;;;;12.25;89.12;96609.03;10363333;28;20480;-66
2023/10/25 07:04:56;;;;;;;5.95;4.85;;;;;;;12.51;88.87;96595.44;10413416;28;20045;-66
2023/10/25 07:10:19;;;;;;;7.00;4.50;;;;;;;12.88;88.38;96589.97;10400412;28;20045;-66
2023/10/25 07:15:40;;;;;;;4.93;4.28;;;;;;;13.29;87.38;96604.88;10377389;28;20048;-66
2023/10/25 07:21:01;;;;;;;5.78;4.68;;;;;;;13.90;86.79;96604.38;10376931;28;20141;-66
2023/10/25 07:26:22;;;;;;;5.15;4.35;;;;;;;14.86;85.50;96597.13;10376557;28;20451;-65
2023/10/25 07:31:43;;;;;;;7.05;4.50;;;;;;;17.36;84.86;96601.28;10376288;28;20065;-66
2023/10/25 07:37:04;;;;;;;4.40;3.55;;;;;;;21.82;80.18;96599.19;10376087;28;20041;-67
2023/10/25 07:42:25;;;;;;;3.78;3.17;;;;;;;27.80;63.31;96594.03;10396736;28;20045;-67
2023/10/25 07:47:46;;;;;;;3.00;2.38;;;;;;;29.45;59.82;96596.22;10390307;28;20052;-65
2023/10/25 07:53:07;;;;;;;2.30;2.10;;;;;;;27.94;53.57;96585.16;10391332;28;20487;-66
2023/10/25 07:58:28;;;;;;;2.30;1.90;;;;;;;26.93;51.65;96588.28;10380490;28;20046;-67
2023/10/25 08:03:49;;;;;;;3.15;2.00;;;;;;;27.25;47.66;96594.97;10374219;28;20543;-67
2023/10/25 08:09:10;;;;;;;2.60;1.83;;;;;;;31.38;44.56;96596.47;10375192;28;20085;-68
2023/10/25 08:14:31;;;;;;;2.55;1.90;;;;;;;38.80;31.83;96584.97;10374124;28;20052;-68
2023/10/25 08:19:51;;;;;;;2.92;1.13;;;;;;;43.02;24.49;96572.91;10372512;28;20494;-68
2023/10/25 08:25:12;;;;;;;2.25;1.20;;;;;;;44.93;19.54;96577.25;10370445;28;20049;-70
2023/10/25 08:30:33;;;;;;;2.17;1.27;;;;;;;44.93;17.45;96579.50;10370168;28;20125;-70
2023/10/25 08:36:04;;;;;;;1.50;1.27;;;;;;;39.90;18.67;96577.78;10372820;28;20127;-70
2023/10/25 08:41:25;;;;;;;1.85;1.40;;;;;;;44.10;16.80;96575.66;10374199;28;20070;-71
2023/10/25 08:46:46;;;;;;;2.05;1.00;;;;;;;38.82;16.71;96588.47;10374320;28;20069;-70
2023/10/25 08:52:07;;;;;;;3.00;1.00;;;;;;;37.45;19.78;96580.75;10365139;28;20084;-69
2023/10/25 08:57:28;;;;;;;2.15;1.00;;;;;;;43.53;15.97;96584.13;10381368;28;20084;-70
2023/10/25 09:02:49;;;;;;;1.13;0.90;;;;;;;44.94;13.28;96566.19;10381336;28;20122;-70
2023/10/25 09:08:18;;;;;;;1.27;0.90;;;;;;;36.54;16.30;96577.81;10381032;28;20070;-70
2023/10/25 09:13:43;;;;;;;1.27;0.77;;;;;;;36.61;19.02;96573.06;10381850;28;20092;-70
2023/10/25 09:19:06;;;;;;;2.00;0.77;;;;;;;35.27;18.02;96580.66;10396239;28;20080;-70
2023/10/25 09:24:26;;;;;;;2.75;0.63;;;;;;;38.26;17.91;96570.09;10393582;28;20077;-70
2023/10/25 09:29:47;;;;;;;1.63;0.60;;;;;;;33.86;18.63;96569.69;10377956;28;20495;-70
2023/10/25 09:35:09;;;;;;;1.20;0.80;;;;;;;35.34;19.51;96575.28;10421912;28;20049;-70
2023/10/25 09:40:30;;;;;;;0.68;0.52;;;;;;;32.12;20.08;96566.47;10406835;28;20129;-70
2023/10/25 09:45:54;;;;;;;0.98;0.70;;;;;;;32.67;22.84;96564.44;10418179;28;20060;-69
2023/10/25 09:51:17;;;;;;;1.77;0.70;;;;;;;39.98;17.17;96557.47;10417540;28;20085;-72
2023/10/25 09:56:39;;;;;;;1.40;0.85;;;;;;;37.08;18.07;96565.38;10416238;28;20160;-71
2023/10/25 10:02:01;;;;;;;2.88;0.60;;;;;;;42.27;15.85;96556.81;10402457;28;20132;-70
2023/10/25 10:07:36;;;;;;;1.88;0.50;;;;;;;46.03;12.91;96561.31;10384599;28;20046;-70
2023/10/25 10:12:57;;;;;;;1.02;0.35;;;;;;;45.65;11.22;96554.50;10418065;28;20133;-71
2023/10/25 10:18:18;;;;;;;0.80;0.50;;;;;;;46.83;11.38;96551.50;10404344;28;20053;-71
2023/10/25 10:23:45;;;;;;;0.50;0.30;;;;;;;46.09;10.88;96540.13;10415765;28;20053;-71
2023/10/25 10:29:29;;;;;;;0.77;0.40;;;;;;;47.21;10.54;96526.34;10398022;28;20120;-70
2023/10/25 10:34:56;;;;;;;1.05;0.40;;;;;;;47.79;9.96;96521.97;10396946;28;20053;-71
2023/10/25 10:40:17;;;;;;;0.38;0.20;;;;;;;47.72;8.92;96508.72;10397110;28;20045;-70
2023/10/25 10:45:38;;;;;;;1.95;0.25;;;;;;;46.71;9.09;96500.22;10396749;28;20069;-71
2023/10/25 10:50:59;;;;;;;1.05;0.25;;;;;;;45.17;9.45;96497.84;10384832;28;20068;-71
2023/10/25 10:56:19;;;;;;;1.30;0.30;;;;;;;45.17;9.66;96482.41;10388109;28;20080;-70
2023/10/25 11:01:40;;;;;;;2.15;0.30;;;;;;;44.27;9.50;96472.78;10401392;28;20081;-71
2023/10/25 11:07:02;;;;;;;1.50;0.20;;;;;;;44.26;9.77;96456.69;10398573;28;20042;-69
2023/10/25 11:12:24;;;;;;;0.90;0.10;;;;;;;45.37;9.07;96454.75;10399538;28;20080;-71
2023/10/25 11:17:45;;;;;;;1.30;0.20;;;;;;;45.60;8.26;96453.31;10396135;28;20050;-70
2023/10/25 11:23:06;;;;;;;1.25;0.20;;;;;;;45.52;8.56;96450.47;10400407;28;20049;-71
2023/10/25 11:28:26;;;;;;;0.63;0.20;;;;;;;44.23;8.23;96450.31;10393953;28;20065;-70
2023/10/25 11:33:47;;;;;;;1.00;0.20;;;;;;;42.80;8.81;96440.44;10398318;28;20556;-68
2023/10/25 11:39:08;;;;;;;0.43;0.20;;;;;;;41.52;8.19;96424.25;10405462;28;20049;-68
2023/10/25 11:44:30;;;;;;;1.00;0.30;;;;;;;37.17;10.49;96423.06;10416518;28;20049;-69
2023/10/25 11:49:52;;;;;;;1.23;0.30;;;;;;;30.72;15.25;96404.13;10416363;28;20128;-68
2023/10/25 11:55:13;;;;;;;0.50;0.20;;;;;;;27.79;17.56;96400.53;10415929;28;20107;-68
2023/10/25 12:00:33;;;;;;;1.50;0.40;;;;;;;25.14;19.87;96399.03;10416024;28;20087;-66
2023/10/25 12:05:55;;;;;;;1.83;0.30;;;;;;;24.16;21.28;96402.00;10401257;28;20037;-67
2023/10/25 12:11:15;;;;;;;0.80;0.20;;;;;;;23.63;22.33;96393.78;10400498;28;20125;-69
2023/10/25 12:16:36;;;;;;;1.42;0.20;;;;;;;23.94;23.33;96380.06;10400454;28;20045;-68
2023/10/25 12:21:57;;;;;;;2.28;0.40;;;;;;;22.85;25.58;96379.78;10414355;28;20077;-67
2023/10/25 12:27:18;;;;;;;6.80;0.30;;;;;;;22.02;26.73;96368.44;10414591;28;20038;-67
